createdAt,value
2022-12-18T00:01:15.279Z,45.27
2022-12-18T00:03:43.008Z,38.10
2022-12-18T00:06:10.701Z,50.10
2022-12-18T00:08:37.955Z,59.25
2022-12-18T00:11:09.797Z,49.40
2022-12-18T00:13:37.404Z,43.20
2022-12-18T00:16:09.396Z,51.58
2022-12-18T00:18:37.115Z,53.28
2022-12-18T00:21:05.776Z,42.97
2022-12-18T00:23:33.713Z,46.05
2022-12-18T00:26:01.429Z,40.93
2022-12-18T00:28:28.779Z,52.10
2022-12-18T00:31:05.950Z,48.33
2022-12-18T00:33:33.228Z,56.08
2022-12-18T00:36:07.888Z,49.65
2022-12-18T00:38:35.987Z,54.73
2022-12-18T00:41:03.850Z,55.28
2022-12-18T00:43:31.267Z,46.00
2022-12-18T00:45:58.530Z,52.05
2022-12-18T00:48:26.727Z,38.58
2022-12-18T00:50:53.995Z,46.07
2022-12-18T00:53:21.172Z,37.95
2022-12-18T00:55:48.891Z,42.63
2022-12-18T00:58:17.664Z,39.17
2022-12-18T01:00:45.016Z,54.72
2022-12-18T01:03:15.582Z,58.37
2022-12-18T01:05:44.822Z,51.95
2022-12-18T01:08:12.610Z,49.92
2022-12-18T01:10:42.615Z,56.10
2022-12-18T01:13:10.160Z,60.85
2022-12-18T01:15:37.463Z,83.50
2022-12-18T01:18:04.709Z,50.30
2022-12-18T01:20:32.011Z,56.28
2022-12-18T01:22:59.573Z,42.97
2022-12-18T01:25:27.947Z,56.10
2022-12-18T01:27:55.185Z,57.73
2022-12-18T01:30:22.473Z,55.45
2022-12-18T01:32:49.671Z,57.03
2022-12-18T01:35:18.083Z,49.08
2022-12-18T01:37:45.336Z,50.08
2022-12-18T01:40:12.721Z,51.33
2022-12-18T01:42:40.204Z,43.22
2022-12-18T01:45:17.554Z,49.90
2022-12-18T01:47:50.940Z,57.85
2022-12-18T01:50:22.976Z,44.33
2022-12-18T01:52:58.392Z,56.47
2022-12-18T01:55:27.445Z,54.47
2022-12-18T01:57:56.198Z,53.70
2022-12-18T02:00:24.495Z,47.17
2022-12-18T02:02:52.498Z,49.95
2022-12-18T02:05:22.508Z,56.83
2022-12-18T02:07:58.341Z,55.45
2022-12-18T02:10:25.599Z,32.15
2022-12-18T02:12:52.798Z,44.08
2022-12-18T02:15:25.224Z,46.10
2022-12-18T02:17:58.539Z,39.73
2022-12-18T02:20:28.856Z,50.17
2022-12-18T02:23:16.024Z,54.72
2022-12-18T02:26:22.162Z,56.42
2022-12-18T02:28:56.467Z,45.38
2022-12-18T02:31:27.098Z,57.03
2022-12-18T02:33:56.401Z,58.85
2022-12-18T02:36:24.535Z,52.35
2022-12-18T02:38:54.000Z,54.42
2022-12-18T02:41:23.952Z,56.40
2022-12-18T02:43:56.704Z,59.60
2022-12-18T02:46:29.525Z,59.25
2022-12-18T02:49:05.398Z,60.03
2022-12-18T02:51:59.488Z,53.78
2022-12-18T02:54:26.772Z,57.80
2022-12-18T02:56:56.446Z,56.37
2022-12-18T02:59:30.741Z,53.10
2022-12-18T03:02:02.731Z,52.63
2022-12-18T03:04:35.269Z,60.63
2022-12-18T03:07:06.942Z,54.55
2022-12-18T03:09:37.157Z,54.40
2022-12-18T03:12:24.148Z,50.30
2022-12-18T03:14:55.040Z,51.55
2022-12-18T03:17:23.804Z,46.75
2022-12-18T03:19:53.457Z,50.72
2022-12-18T03:22:21.846Z,51.10
2022-12-18T03:24:53.282Z,49.88
2022-12-18T03:27:22.607Z,50.53
2022-12-18T03:29:55.585Z,47.38
2022-12-18T03:32:29.099Z,43.67
2022-12-18T03:34:59.805Z,47.37
2022-12-18T03:37:33.944Z,52.85
2022-12-18T03:40:01.622Z,42.60
2022-12-18T03:42:32.232Z,47.92
2022-12-18T03:45:29.864Z,44.40
2022-12-18T03:47:57.093Z,46.83
2022-12-18T03:50:26.618Z,51.40
2022-12-18T03:52:57.777Z,45.13
2022-12-18T03:55:26.641Z,52.72
2022-12-18T03:58:00.423Z,46.72
2022-12-18T04:00:32.847Z,46.23
2022-12-18T04:03:08.003Z,45.20
2022-12-18T04:05:42.804Z,46.97
2022-12-18T04:08:10.657Z,44.22
2022-12-18T04:10:42.488Z,44.72
2022-12-18T04:13:10.456Z,46.87
2022-12-18T04:15:38.188Z,50.35
2022-12-18T04:18:09.708Z,49.58
2022-12-18T04:20:41.015Z,48.83
2022-12-18T04:23:09.136Z,37.78
2022-12-18T04:25:38.307Z,47.07
2022-12-18T04:28:09.453Z,42.05
2022-12-18T04:30:38.888Z,39.55
2022-12-18T04:33:10.754Z,37.05
2022-12-18T04:35:38.732Z,41.15
2022-12-18T04:38:07.842Z,40.27
2022-12-18T04:40:35.090Z,35.00
2022-12-18T04:43:04.890Z,40.67
2022-12-18T04:45:32.711Z,41.97
2022-12-18T04:48:00.334Z,38.05
2022-12-18T04:50:27.914Z,33.67
2022-12-18T04:52:56.085Z,29.25
2022-12-18T04:55:26.647Z,44.60
2022-12-18T04:57:54.094Z,39.78
2022-12-18T05:00:21.373Z,30.52
2022-12-18T05:02:48.737Z,30.87
2022-12-18T05:05:16.191Z,38.45
2022-12-18T05:07:43.442Z,30.13
2022-12-18T05:10:11.282Z,26.40
2022-12-18T05:12:58.481Z,30.95
2022-12-18T05:15:28.344Z,34.87
2022-12-18T05:17:56.101Z,29.33
2022-12-18T05:20:23.398Z,29.67
2022-12-18T05:22:50.658Z,31.90
2022-12-18T05:25:17.893Z,29.10
2022-12-18T05:27:45.863Z,33.63
2022-12-18T05:30:13.968Z,26.05
2022-12-18T05:32:41.362Z,33.55
2022-12-18T05:35:09.379Z,29.80
2022-12-18T05:37:42.510Z,26.98
2022-12-18T05:40:10.672Z,31.97
2022-12-18T05:42:37.936Z,28.10
2022-12-18T05:45:05.890Z,29.38
2022-12-18T05:47:33.155Z,26.50
2022-12-18T05:50:00.424Z,24.55
2022-12-18T05:52:27.775Z,27.73
2022-12-18T05:54:55.110Z,25.50
2022-12-18T05:57:22.677Z,26.13
2022-12-18T05:59:49.938Z,27.27
2022-12-18T06:02:17.587Z,27.05
2022-12-18T06:04:44.914Z,26.43
2022-12-18T06:07:12.268Z,27.60
2022-12-18T06:09:39.586Z,26.25
2022-12-18T06:12:07.137Z,27.63
2022-12-18T06:14:34.344Z,26.38
2022-12-18T06:17:01.631Z,24.07
2022-12-18T06:19:28.901Z,24.20
2022-12-18T06:21:58.750Z,25.05
2022-12-18T06:24:26.152Z,21.17
2022-12-18T06:26:53.443Z,25.15
2022-12-18T06:29:20.882Z,23.63
2022-12-18T06:31:48.252Z,22.77
2022-12-18T06:34:15.597Z,23.38
2022-12-18T06:36:42.885Z,23.90
2022-12-18T06:39:10.211Z,23.50
2022-12-18T06:41:37.459Z,23.53
2022-12-18T06:44:05.017Z,20.92
2022-12-18T06:46:33.186Z,22.85
2022-12-18T06:49:00.441Z,19.60
2022-12-18T06:51:27.786Z,24.33
2022-12-18T06:53:55.166Z,21.90
2022-12-18T06:56:22.376Z,23.58
2022-12-18T06:58:50.958Z,19.98
2022-12-18T07:01:18.357Z,23.92
2022-12-18T07:03:46.001Z,17.65
2022-12-18T07:06:17.927Z,23.53
2022-12-18T07:08:45.701Z,20.38
2022-12-18T07:11:13.203Z,23.65
2022-12-18T07:13:40.762Z,23.80
2022-12-18T07:16:22.309Z,15.25
2022-12-18T07:18:51.364Z,18.13
2022-12-18T07:21:20.215Z,20.08
2022-12-18T07:23:49.081Z,24.58
2022-12-18T07:26:17.441Z,15.13
2022-12-18T07:28:44.896Z,19.95
2022-12-18T07:31:13.851Z,18.00
2022-12-18T07:33:41.587Z,16.63
2022-12-18T07:36:09.919Z,19.58
2022-12-18T07:38:37.396Z,19.80
2022-12-18T07:41:05.871Z,20.08
2022-12-18T07:43:34.316Z,19.87
2022-12-18T07:46:01.608Z,19.90
2022-12-18T07:48:29.705Z,21.73
2022-12-18T07:51:00.249Z,18.55
2022-12-18T07:53:27.640Z,18.42
2022-12-18T07:56:25.917Z,22.03
2022-12-18T07:58:49.195Z,21.17
2022-12-18T08:01:16.540Z,22.42
2022-12-18T08:03:44.635Z,20.48
2022-12-18T08:06:11.881Z,22.67
2022-12-18T08:08:39.205Z,21.40
2022-12-18T08:11:06.641Z,20.48
2022-12-18T08:13:33.930Z,19.20
2022-12-18T08:16:02.290Z,21.50
2022-12-18T08:18:29.962Z,16.15
2022-12-18T08:20:57.297Z,18.20
2022-12-18T08:23:28.544Z,18.73
2022-12-18T08:25:56.041Z,17.52
2022-12-18T08:28:23.284Z,15.52
2022-12-18T08:30:53.315Z,20.02
2022-12-18T08:33:20.662Z,13.07
2022-12-18T08:35:47.978Z,16.60
2022-12-18T08:38:15.243Z,20.30
2022-12-18T08:40:42.599Z,18.83
2022-12-18T08:43:29.888Z,17.88
2022-12-18T08:45:57.356Z,18.83
2022-12-18T08:48:24.576Z,18.98
2022-12-18T08:50:55.653Z,18.75
2022-12-18T08:53:22.974Z,16.98
2022-12-18T08:55:50.592Z,18.58
2022-12-18T08:58:17.936Z,18.23
2022-12-18T09:00:45.178Z,19.02
2022-12-18T09:03:16.532Z,21.63
2022-12-18T09:05:43.857Z,19.73
2022-12-18T09:08:11.226Z,15.13
2022-12-18T09:10:48.664Z,14.57
2022-12-18T09:13:16.575Z,12.13
2022-12-18T09:15:46.229Z,15.73
2022-12-18T09:18:14.168Z,13.75
2022-12-18T09:20:41.357Z,16.48
2022-12-18T09:23:09.825Z,19.10
2022-12-18T09:25:37.651Z,16.27
2022-12-18T09:28:06.318Z,16.65
2022-12-18T09:30:37.124Z,18.02
2022-12-18T09:33:04.684Z,16.20
2022-12-18T09:35:34.275Z,18.90
2022-12-18T09:38:01.762Z,17.25
2022-12-18T09:40:34.399Z,14.98
2022-12-18T09:43:04.451Z,17.27
2022-12-18T09:45:39.703Z,15.93
2022-12-18T09:48:09.722Z,17.63
2022-12-18T09:50:40.905Z,11.60
2022-12-18T09:53:11.865Z,11.05
2022-12-18T09:55:41.290Z,15.45
2022-12-18T09:58:09.232Z,17.00
2022-12-18T10:00:36.629Z,16.03
2022-12-18T10:03:14.228Z,17.05
2022-12-18T10:05:45.089Z,17.63
2022-12-18T10:08:20.730Z,16.52
2022-12-18T10:10:59.786Z,15.77
2022-12-18T10:13:33.397Z,16.73
2022-12-18T10:16:16.294Z,15.43
2022-12-18T10:18:55.736Z,18.33
2022-12-18T10:21:31.830Z,14.85
2022-12-18T10:24:04.840Z,18.10
2022-12-18T10:26:33.722Z,17.40
2022-12-18T10:29:05.574Z,11.50
2022-12-18T10:31:33.386Z,17.85
2022-12-18T10:34:00.644Z,19.08
2022-12-18T10:36:28.053Z,17.13
2022-12-18T10:38:55.310Z,19.00
2022-12-18T10:41:26.691Z,21.50
2022-12-18T10:44:21.186Z,19.10
2022-12-18T10:46:50.232Z,18.52
2022-12-18T10:49:21.777Z,16.45
2022-12-18T10:51:49.234Z,15.60
2022-12-18T10:54:18.528Z,17.83
2022-12-18T10:56:46.422Z,15.70
2022-12-18T10:59:15.351Z,17.20
2022-12-18T11:01:48.818Z,18.85
2022-12-18T11:04:21.083Z,17.50
2022-12-18T11:06:59.103Z,17.67
2022-12-18T11:09:30.810Z,18.48
2022-12-18T11:12:00.311Z,18.42
2022-12-18T11:14:29.615Z,14.40
2022-12-18T11:17:24.407Z,17.37
2022-12-18T11:19:44.768Z,17.25
2022-12-18T11:22:22.754Z,16.83
2022-12-18T11:25:32.138Z,22.15
2022-12-18T11:27:57.197Z,14.65
2022-12-18T11:30:26.271Z,15.50
2022-12-18T11:33:11.600Z,16.58
2022-12-18T11:36:04.633Z,15.00
2022-12-18T11:38:34.227Z,17.73
2022-12-18T11:41:04.630Z,14.20
2022-12-18T11:43:34.702Z,12.87
2022-12-18T11:46:09.026Z,19.13
2022-12-18T11:48:44.017Z,18.80
2022-12-18T11:51:16.092Z,14.18
2022-12-18T11:53:46.271Z,15.60
2022-12-18T11:56:13.648Z,15.77
2022-12-18T11:58:54.451Z,18.15
2022-12-18T12:01:44.228Z,18.17
2022-12-18T12:04:30.556Z,16.60
2022-12-18T12:07:22.212Z,15.65
2022-12-18T12:09:55.207Z,13.47
2022-12-18T12:12:25.567Z,15.30
2022-12-18T12:15:15.613Z,11.88
2022-12-18T12:17:46.436Z,15.65
2022-12-18T12:20:25.384Z,15.40
2022-12-18T12:22:59.359Z,15.50
2022-12-18T12:25:42.056Z,19.15
2022-12-18T12:28:15.372Z,15.13
2022-12-18T12:31:18.333Z,15.43
2022-12-18T12:33:54.796Z,17.65
2022-12-18T12:36:27.859Z,13.80
2022-12-18T12:38:56.908Z,19.67
2022-12-18T12:41:45.252Z,21.33
2022-12-18T12:44:16.994Z,19.13
2022-12-18T12:46:45.166Z,20.65
2022-12-18T12:49:23.339Z,18.17
2022-12-18T12:52:07.970Z,16.10
2022-12-18T12:54:35.962Z,21.65
2022-12-18T12:57:10.321Z,16.52
2022-12-18T12:59:38.141Z,16.10
2022-12-18T13:02:26.755Z,22.87
2022-12-18T13:04:59.711Z,18.02
2022-12-18T13:07:40.069Z,17.17
2022-12-18T13:10:27.118Z,16.33
2022-12-18T13:12:58.962Z,18.67
2022-12-18T13:15:30.548Z,17.07
2022-12-18T13:18:11.711Z,20.90
2022-12-18T13:20:46.602Z,15.85
2022-12-18T13:23:27.486Z,17.85
2022-12-18T13:25:54.793Z,18.13
2022-12-18T13:28:22.062Z,21.17
2022-12-18T13:30:50.873Z,20.00
2022-12-18T13:33:27.900Z,15.77
2022-12-18T13:36:02.506Z,16.38
2022-12-18T13:38:32.867Z,13.70
2022-12-18T13:41:00.862Z,16.93
2022-12-18T13:43:30.255Z,18.20
2022-12-18T13:46:00.628Z,16.75
2022-12-18T13:48:28.980Z,16.10
2022-12-18T13:51:22.806Z,19.25
2022-12-18T13:53:52.417Z,18.97
2022-12-18T13:56:20.340Z,13.10
2022-12-18T13:58:48.497Z,17.08
2022-12-18T14:01:25.204Z,17.25
2022-12-18T14:03:52.605Z,18.35
2022-12-18T14:06:20.227Z,17.97
2022-12-18T14:08:48.362Z,14.25
2022-12-18T14:11:21.952Z,17.45
2022-12-18T14:13:50.617Z,14.27
2022-12-18T14:16:19.051Z,16.08
2022-12-18T14:18:46.489Z,18.70
2022-12-18T14:21:22.491Z,15.50
2022-12-18T14:23:49.910Z,18.20
2022-12-18T14:26:30.798Z,18.52
2022-12-18T14:28:59.580Z,16.77
2022-12-18T14:31:28.146Z,16.00
2022-12-18T14:33:56.241Z,16.70
2022-12-18T14:36:24.790Z,18.70
2022-12-18T14:38:54.600Z,18.60
2022-12-18T14:41:22.449Z,17.60
2022-12-18T14:43:50.770Z,17.53
2022-12-18T14:46:50.245Z,14.90
2022-12-18T14:49:28.582Z,15.15
2022-12-18T14:51:57.122Z,20.10
2022-12-18T14:54:25.558Z,22.23
2022-12-18T14:56:57.589Z,17.10
2022-12-18T14:59:26.234Z,22.30
2022-12-18T15:02:01.645Z,17.73
2022-12-18T15:04:29.668Z,18.35
2022-12-18T15:07:12.921Z,21.20
2022-12-18T15:09:41.795Z,19.87
2022-12-18T15:12:27.270Z,16.38
2022-12-18T15:14:54.598Z,19.50
2022-12-18T15:17:25.783Z,19.50
2022-12-18T15:19:59.803Z,19.38
2022-12-18T15:22:27.055Z,16.23
2022-12-18T15:24:55.213Z,18.95
2022-12-18T15:27:27.692Z,21.02
2022-12-18T15:30:17.839Z,19.50
2022-12-18T15:32:45.765Z,21.42
2022-12-18T15:35:12.999Z,16.57
2022-12-18T15:37:40.284Z,14.27
2022-12-18T15:40:09.408Z,22.25
2022-12-18T15:42:55.384Z,22.98
2022-12-18T15:45:22.674Z,19.02
2022-12-18T15:47:51.366Z,22.17
2022-12-18T15:50:18.720Z,23.73
2022-12-18T15:52:47.558Z,16.77
2022-12-18T15:55:34.489Z,17.10
2022-12-18T15:58:03.298Z,15.85
2022-12-18T16:00:30.637Z,16.93
2022-12-18T16:02:57.971Z,24.70
2022-12-18T16:05:25.752Z,20.98
2022-12-18T16:07:52.988Z,20.13
2022-12-18T16:10:20.263Z,20.45
2022-12-18T16:12:47.695Z,15.97
2022-12-18T16:15:21.095Z,15.57
2022-12-18T16:17:52.732Z,14.70
2022-12-18T16:20:22.001Z,17.73
2022-12-18T16:22:50.326Z,19.17
2022-12-18T16:25:17.627Z,17.53
2022-12-18T16:27:44.872Z,14.23
2022-12-18T16:30:20.526Z,19.05
2022-12-18T16:32:47.898Z,12.60
2022-12-18T16:35:16.033Z,17.73
2022-12-18T16:37:43.500Z,25.83
2022-12-18T16:40:12.491Z,16.85
2022-12-18T16:42:40.283Z,17.02
2022-12-18T16:45:08.482Z,19.50
2022-12-18T16:47:36.156Z,27.65
2022-12-18T16:50:03.471Z,20.20
2022-12-18T16:52:30.967Z,20.95
2022-12-18T16:54:58.248Z,14.00
2022-12-18T16:57:25.661Z,21.80
2022-12-18T16:59:53.256Z,19.52
2022-12-18T17:02:24.832Z,17.87
2022-12-18T17:04:54.451Z,19.75
2022-12-18T17:07:22.300Z,20.83
2022-12-18T17:09:51.169Z,23.30
2022-12-18T17:12:18.783Z,23.85
2022-12-18T17:14:46.019Z,21.60
2022-12-18T17:17:23.309Z,29.58
2022-12-18T17:19:51.548Z,22.08
2022-12-18T17:22:18.795Z,23.55
2022-12-18T17:24:46.968Z,29.10
2022-12-18T17:27:14.329Z,17.90
2022-12-18T17:29:47.380Z,23.55
2022-12-18T17:32:16.402Z,19.17
2022-12-18T17:34:43.690Z,23.52
2022-12-18T17:37:12.113Z,21.88
2022-12-18T17:39:39.793Z,18.70
2022-12-18T17:42:07.836Z,21.15
2022-12-18T17:44:37.881Z,17.90
2022-12-18T17:47:06.158Z,23.73
2022-12-18T17:49:33.467Z,22.95
2022-12-18T17:52:00.704Z,17.33
2022-12-18T17:54:27.958Z,15.50
2022-12-18T17:56:55.230Z,18.60
2022-12-18T17:59:22.766Z,21.30
2022-12-18T18:01:50.135Z,21.77
2022-12-18T18:04:17.626Z,16.27
2022-12-18T18:06:44.960Z,22.98
2022-12-18T18:09:16.400Z,27.25
2022-12-18T18:12:03.879Z,17.20
2022-12-18T18:14:31.600Z,23.63
2022-12-18T18:17:00.783Z,19.20
2022-12-18T18:19:32.700Z,17.85
2022-12-18T18:21:59.893Z,21.20
2022-12-18T18:24:27.684Z,16.00
2022-12-18T18:26:55.024Z,24.80
2022-12-18T18:29:23.780Z,21.43
2022-12-18T18:31:53.649Z,15.48
2022-12-18T18:34:25.305Z,19.38
2022-12-18T18:36:52.637Z,19.38
2022-12-18T18:39:19.949Z,22.08
2022-12-18T18:41:48.222Z,25.27
2022-12-18T18:44:16.541Z,13.90
2022-12-18T18:46:43.864Z,25.38
2022-12-18T18:49:11.806Z,21.45
2022-12-18T18:51:40.332Z,22.77
2022-12-18T18:54:07.612Z,20.80
2022-12-18T18:56:56.718Z,16.33
2022-12-18T18:59:31.587Z,17.48
2022-12-18T19:02:00.088Z,22.05
2022-12-18T19:04:32.018Z,24.30
2022-12-18T19:06:59.230Z,18.33
2022-12-18T19:09:26.900Z,21.60
2022-12-18T19:12:12.967Z,28.02
2022-12-18T19:14:40.287Z,24.13
2022-12-18T19:17:07.668Z,24.70
2022-12-18T19:19:35.324Z,22.87
2022-12-18T19:22:02.779Z,25.33
2022-12-18T19:24:32.882Z,25.90
2022-12-18T19:27:00.123Z,30.05
2022-12-18T19:29:27.407Z,27.50
2022-12-18T19:31:54.745Z,23.77
2022-12-18T19:34:22.023Z,25.77
2022-12-18T19:36:52.942Z,20.73
2022-12-18T19:39:23.978Z,23.50
2022-12-18T19:41:52.763Z,21.00
2022-12-18T19:44:20.008Z,25.43
2022-12-18T19:46:50.324Z,21.38
2022-12-18T19:49:18.302Z,20.50
2022-12-18T19:51:46.105Z,24.73
2022-12-18T19:54:17.273Z,27.33
2022-12-18T19:56:45.359Z,24.00
2022-12-18T19:59:13.132Z,23.58
2022-12-18T20:01:40.936Z,22.23
2022-12-18T20:04:08.477Z,23.52
2022-12-18T20:06:49.963Z,27.58
2022-12-18T20:09:17.862Z,24.90
2022-12-18T20:11:46.355Z,24.65
2022-12-18T20:14:14.402Z,23.42
2022-12-18T20:16:44.216Z,23.38
2022-12-18T20:19:12.836Z,25.10
2022-12-18T20:21:41.509Z,21.87
2022-12-18T20:24:09.091Z,31.15
2022-12-18T20:26:36.335Z,22.90
2022-12-18T20:29:03.639Z,20.35
2022-12-18T20:31:31.044Z,21.13
2022-12-18T20:34:01.721Z,15.87
2022-12-18T20:36:33.052Z,27.30
2022-12-18T20:39:04.000Z,19.73
2022-12-18T20:41:37.923Z,26.30
2022-12-18T20:44:21.630Z,22.63
2022-12-18T20:46:51.600Z,17.70
2022-12-18T20:49:18.903Z,26.60
2022-12-18T20:51:46.199Z,26.48
2022-12-18T20:54:13.433Z,23.00
2022-12-18T20:56:40.656Z,24.90
2022-12-18T20:59:07.932Z,17.60
2022-12-18T21:01:35.867Z,21.05
2022-12-18T21:04:04.741Z,23.95
2022-12-18T21:06:31.995Z,20.30
2022-12-18T21:08:59.409Z,20.83
2022-12-18T21:11:47.280Z,23.23
2022-12-18T21:14:22.018Z,22.52
2022-12-18T21:16:49.712Z,19.17
2022-12-18T21:19:21.127Z,18.75
2022-12-18T21:21:48.424Z,22.05
2022-12-18T21:24:15.881Z,22.83
2022-12-18T21:26:45.862Z,24.90
2022-12-18T21:29:15.178Z,26.83
2022-12-18T21:31:43.113Z,20.67
2022-12-18T21:34:12.376Z,27.33
2022-12-18T21:36:40.415Z,26.47
2022-12-18T21:39:07.633Z,22.38
2022-12-18T21:41:55.333Z,25.90
2022-12-18T21:44:24.061Z,26.30
2022-12-18T21:46:57.437Z,23.98
2022-12-18T21:49:27.553Z,18.37
2022-12-18T21:51:55.979Z,30.67
2022-12-18T21:54:23.695Z,27.33
2022-12-18T21:56:52.444Z,23.83
2022-12-18T21:59:24.006Z,23.60
2022-12-18T22:01:51.833Z,24.77
2022-12-18T22:04:19.673Z,28.05
2022-12-18T22:06:48.894Z,20.15
2022-12-18T22:09:17.894Z,23.00
2022-12-18T22:11:45.482Z,20.77
2022-12-18T22:14:13.672Z,31.27
2022-12-18T22:16:41.052Z,16.00
2022-12-18T22:19:08.665Z,20.67
2022-12-18T22:21:37.156Z,23.27
2022-12-18T22:24:05.947Z,21.88
2022-12-18T22:26:39.461Z,21.87
2022-12-18T22:29:25.594Z,21.27
2022-12-18T22:31:52.819Z,24.70
2022-12-18T22:34:22.945Z,22.85
2022-12-18T22:36:51.037Z,26.58
2022-12-18T22:39:19.588Z,20.53
2022-12-18T22:41:46.848Z,23.02
2022-12-18T22:44:15.031Z,26.38
2022-12-18T22:46:46.241Z,21.92
2022-12-18T22:49:17.645Z,20.58
2022-12-18T22:51:45.023Z,23.70
2022-12-18T22:54:12.483Z,28.90
2022-12-18T22:56:40.037Z,27.90
2022-12-18T22:59:08.665Z,19.30
2022-12-18T23:01:36.020Z,21.02
2022-12-18T23:04:05.632Z,28.33
2022-12-18T23:06:32.890Z,19.75
2022-12-18T23:09:00.124Z,23.08
2022-12-18T23:11:27.870Z,24.77
2022-12-18T23:13:56.733Z,25.42
2022-12-18T23:16:26.173Z,16.13
2022-12-18T23:18:54.404Z,22.48
2022-12-18T23:21:22.356Z,26.42
2022-12-18T23:23:50.622Z,25.92
2022-12-18T23:26:23.002Z,24.05
2022-12-18T23:28:50.990Z,26.53
2022-12-18T23:31:34.798Z,20.58
2022-12-18T23:34:02.543Z,19.63
2022-12-18T23:36:30.819Z,20.27
2022-12-18T23:39:05.314Z,27.42
2022-12-18T23:41:33.017Z,22.93
2022-12-18T23:44:01.173Z,22.67
2022-12-18T23:46:30.216Z,19.48
2022-12-18T23:48:59.181Z,27.60
2022-12-18T23:51:26.654Z,22.08
2022-12-18T23:53:55.051Z,20.50
2022-12-18T23:56:22.408Z,26.77
2022-12-18T23:58:52.054Z,29.52
